Gabriele Tagliabue

Olheiro - Torino
20 Fev 2028
Domingo
Processo

Personalidade

Adaptabilidade (14) Ambição (8) Controvérsia (10) Lealdade (15) Pressão (11) Profissionalismo (10) Espírito Esportivo (16) Temperamento (18)

Perfil

Estilo de Treinamento Democrático
Licença Continental Pro
Determinação 13
Gestão de Pessoas 5
Motivação 8
Disciplina 11
Satisfação no Trabalho
100%
Fadiga
0%
Função Olheiro
Salário 99.0K p/s
Contrato 14.03.2029

Desempenho

Comportamento Bom
Eficácia do Treinamento
44%
Desenvolvimento do Jogador
65%
Prevenção de Lesões
30%
Implementação Tática
70%

Eventos Recentes

Participou de uma reunião de recrutamento agora
Participou de uma reunião de recrutamento agora
Participou de uma reunião de recrutamento agora
Recomendou um alvo de transferência agora
Participou de uma reunião de recrutamento agora
Recomendou um alvo de transferência agora
Recomendou um alvo de transferência agora
Avaliou um jogador 7d atrás

Monitorando agora

175
Jogador Clube Status Habilidade Confiança Observado Última observação Último voto
Bernat Guiu Virtus Entella Relatório pronto 126 / 125 76% 2 16.02.2028 -
Gaetano Oristanio Venezia Ativo 145 / 145 40% 2 16.02.2028 -
Manfred Ugalde Spartak Moscow Ativo 134 / 137 40% 1 16.02.2028 -
Luis Vázquez Birmingham Ativo 131 / 133 40% 1 15.02.2028 -
Kieron Bowie Hellas Verona Ativo 128 / 116 40% 1 15.02.2028 -
Cristian Shpendi Cesena Ativo 136 / 152 40% 6 12.02.2028 -
Lucas Beltrán Fiorentina Ativo 140 / 135 40% 2 12.02.2028 -
Vanja Vlahović Spezia Ativo 131 / 115 40% 1 12.02.2028 -
Felipe Augusto Zenit Ativo 138 / 127 40% 5 10.02.2028 -
Matteo Cancellieri Hellas Verona Ativo 150 / 133 40% 1 10.02.2028 -
David Romero Parma Ativo 126 / 128 40% 1 10.02.2028 -
David Ankeye Zeleznicar Pancevo Ativo 120 / 108 40% 1 08.02.2028 -
Lorenzo Lucca Napoli Ativo 153 / 144 40% 1 08.02.2028 -
Dardan Shabanhaxhaj Rubin Ativo 122 / 125 40% 1 07.02.2028 -
Albion Rrahmani Padova Ativo 126 / 136 40% 1 07.02.2028 -
Konan N'Dri Lecce Ativo 129 / 136 40% 1 07.02.2028 -
Ez Abde Girona Ativo 160 / 164 40% 1 31.01.2028 -
Exequiel Zeballos Fiorentina Ativo 145 / 144 40% 1 31.01.2028 -
Andrea Giorgini Südtirol Perdido 130 / 140 76% 1 24.01.2028 -
Donnell McNeilly Nottingham Forest Perdido 117 / 114 40% 1 17.01.2028 -
Yaroslav Gladyshev Dinamo Moscow Ativo 126 / 139 40% 1 17.01.2028 -
Marco Nasti Cremonese Perdido 119 / 127 40% 1 17.01.2028 -
Thomas Sandon Vicenza Relatório pronto 115 / 122 76% 1 02.01.2028 -
Samuele Mulattieri Sassuolo Ativo 136 / 122 40% 1 09.08.2027 -
Mateus Mané Manchester United Ativo 141 / 140 40% 1 02.08.2027 -
Wesley AS Roma Ativo 146 / 155 40% 1 02.08.2027 -
Joël Monteiro Lecce Ativo 121 / 135 40% 1 27.07.2027 -
Arthur Atta Fiorentina Ativo 146 / 137 40% 2 12.07.2027 -
Christ Inao Oulaï Fiorentina Ativo 139 / 155 40% 4 12.07.2027 -
Donyell Malen AS Roma Ativo 158 / 157 40% 7 21.06.2027 -
Gonçalo Ramos AC Milan Ativo 161 / 162 40% 5 14.06.2027 -
Mirko Pigliacelli Catanzaro Ativo 132 / 137 76% 1 14.06.2027 -
Davide Buglio Catanzaro Ativo 111 / 124 76% 1 03.06.2027 -
Roberto Alvarado Monaco Ativo 139 / 139 66% 1 01.06.2027 Aprovar
Pedro de la Vega FC Dallas Ativo 133 / 134 66% 1 01.06.2027 Aprovar
Facundo Torres LOSC Lille Ativo 134 / 134 67% 1 01.06.2027 Aprovar
Mason Greenwood Nottingham Forest Ativo 154 / 156 66% 1 01.06.2027 -
Jens Odgaard Bologna Ativo 144 / 141 40% 5 31.05.2027 -
Andrea Pinamonti Lazio Ativo 147 / 126 40% 3 30.05.2027 -
Rocco Vata Watford Ativo 122 / 119 40% 2 30.05.2027 -
Shea Lacey Wolverhampton Ativo 121 / 127 40% 1 30.05.2027 -
Alexandr Sobolev Zenit Ativo 129 / 127 40% 1 28.05.2027 -
Gonçalo Oliveira Benfica Ativo 106 / 124 40% 1 28.05.2027 -
Lewis Morgan SuperSport United Ativo 122 / 113 40% 3 25.05.2027 -
Keinan Davis Udinese Ativo 136 / 131 40% 4 24.05.2027 -
Mattia Felici Cagliari Ativo 139 / 135 40% 4 23.05.2027 -
Yoan Bonny Inter Ativo 148 / 150 40% 9 22.05.2027 -
Dany Mota Monza Ativo 132 / 119 40% 5 21.05.2027 -
Romano Floriani Mussolini Avellino Ativo 122 / 113 40% 3 18.05.2027 -
Caspar Jander Southampton Ativo 129 / 132 40% 1 18.05.2027 -
Jayden Addai Como Ativo 139 / 143 40% 2 17.05.2027 -
Jofre Torrents Ajax Ativo 129 / 119 40% 4 17.05.2027 -
Assane Diao Lazio Ativo 141 / 158 40% 10 13.05.2027 -
Valentin Atangana Al-Ahli Ativo 133 / 144 40% 1 13.05.2027 -
Davide Bartesaghi AC Milan Ativo 132 / 144 40% 1 13.05.2027 -
Karim Coulibaly RC Strasbourg Ativo 116 / 124 40% 1 13.05.2027 -
Abdoulaye Kanté Al-Ettifaq Ativo 107 / 115 40% 2 10.05.2027 -
Riley Owen Trento Ativo 101 / 95 40% 1 10.05.2027 -
Hlompho Lorch Ajax Cape Town Ativo 95 / 108 40% 1 09.05.2027 -
Tijjani Noslin Lazio Ativo 142 / 142 40% 1 06.05.2027 -
Matías Gómez Granada Ativo 108 / 123 40% 1 02.05.2027 -
Youssef En-Nesyri Al-Ittihad Ativo 141 / 120 40% 3 26.04.2027 -
Freddy Murillo Valencia Ativo 109 / 117 40% 1 26.04.2027 -
Hugo Rojas Instituto Ativo 95 / 121 40% 1 26.04.2027 -
Luciano Gondou CSKA Moscow Ativo 134 / 126 40% 4 24.04.2027 -
Nicolò Zaniolo Udinese Ativo 139 / 146 40% 4 23.04.2027 -
Amin Sarr Hellas Verona Ativo 134 / 116 40% 1 22.04.2027 -
Jérémy Le Douaron Palermo Ativo 118 / 132 40% 1 19.04.2027 -
Santiago Castro AS Roma Ativo 149 / 139 40% 2 18.04.2027 -
Gianluca Busio Venezia Ativo 134 / 121 40% 4 13.04.2027 -
Gerard Yepes Empoli Ativo 120 / 126 40% 1 13.04.2027 -
Mattia Bortolussi Padova Ativo 129 / 127 40% 1 12.04.2027 -
Adam Obert Cagliari Ativo 130 / 129 40% 3 11.04.2027 -
Musa Barrow Al-Khaleej Ativo 142 / 148 40% 1 02.04.2027 -
Ali Youssef Apollon Ativo 129 / 121 40% 1 31.03.2027 -
Sascha Britschgi Padova Ativo 116 / 128 40% 1 30.03.2027 -
Vitinha Genoa Ativo 127 / 145 40% 1 29.03.2027 -
Tristan Degreef Anderlecht Ativo 126 / 119 40% 2 24.03.2027 -
Jhon Jhon Zenit Ativo 138 / 120 40% 2 24.03.2027 -
Nicolò Savona Nottingham Forest Ativo 137 / 148 40% 1 24.03.2027 -
Mirlind Daku Spartak Moscow Ativo 132 / 139 40% 1 24.03.2027 -
Olakunle Olusegun Rostov Ativo 125 / 126 40% 1 22.03.2027 -
Dmitry Vorobjov Krasnodar Ativo 128 / 115 40% 1 20.03.2027 -
Giacomo Raspadori Atalanta Ativo 155 / 154 40% 3 19.03.2027 -
Kenneth Taylor Lazio Ativo 154 / 161 40% 1 13.03.2027 -
Matheus Gonçalves Al-Ahli Ativo 134 / 139 40% 1 13.03.2027 -
Keagan Phiri Platinum Stars Ativo 100 / 93 40% 2 12.03.2027 -
Juan Giménez Celta Ativo 110 / 117 40% 1 12.03.2027 -
Cemran Dansin Orlando Pirates Ativo 114 / 115 40% 2 11.03.2027 -
Facundo Di Biasi Gimnasia La Plata Ativo 119 / 116 40% 1 11.03.2027 -
Maksim Kireev KV Mechelen Ativo 116 / 133 40% 1 09.03.2027 -
Tobias Slotsager Casertana Ativo 115 / 111 40% 1 07.03.2027 -
Leonardo Mendicino Bari Ativo 116 / 119 40% 1 07.03.2027 -
Josh King Chelsea Ativo 139 / 142 40% 1 06.03.2027 -
Antonio Vergara Napoli Ativo 139 / 136 40% 3 05.03.2027 -
Dean Huijsen Villarreal Ativo 145 / 157 40% 1 05.03.2027 -
Nevot Ratner Maccabi Haifa Ativo 109 / 130 40% 1 05.03.2027 -
Massien Ghaddari Utrecht Ativo 109 / 122 40% 1 05.03.2027 -
Tommaso Berti Cesena Ativo 128 / 139 40% 1 03.03.2027 -
Sergey Pinyaev Lokomotiv Moscow Ativo 129 / 138 40% 1 03.03.2027 -
Samuele Angori Pisa Ativo 128 / 127 40% 1 01.03.2027 -
Kristian Thorstvedt Sassuolo Ativo 137 / 122 40% 5 31.12.2026 -
Maxim Glushenkov Zenit Ativo 137 / 137 40% 2 31.12.2026 -
Marquinhos Spartak Moscow Ativo 134 / 121 40% 2 29.12.2026 -
Serginho Al Wasl Ativo 132 / 145 40% 1 29.12.2026 -
Nuno Tavares Lazio Ativo 142 / 150 40% 2 26.12.2026 -
Unai Gómez Udinese Ativo 132 / 144 40% 3 23.12.2026 -
Matías Soulé AS Roma Ativo 156 / 153 40% 2 22.12.2026 -
Cédric Don Maccabi Haifa Ativo 121 / 111 40% 2 21.12.2026 -
Marlon Gomes Shakhtar Ativo 138 / 140 40% 1 21.12.2026 -
Williams Manyama SuperSport United Ativo 118 / 125 40% 1 21.12.2026 -
Nahuel Ulariaga Hapoel Beer Sheva Ativo 114 / 131 40% 1 20.12.2026 -
Jesús Rodríguez Como Ativo 144 / 135 40% 5 19.12.2026 Observar
Esequiel Barco Spartak Moscow Ativo 143 / 144 40% 4 19.12.2026 -
Yago Santiago Racing Santander Ativo 121 / 130 40% 2 14.12.2026 -
Tomáš Suslov Hellas Verona Ativo 135 / 126 40% 1 14.12.2026 -
Nazar Voloshyn Dynamo Kyiv Ativo 133 / 130 40% 1 13.12.2026 -
Ruben van Bommel Ferencvaros Ativo 136 / 144 40% 1 10.12.2026 -
Gustavo Mantuan Zenit Ativo 135 / 121 40% 1 10.12.2026 -
Gustav Isaksen Lazio Ativo 140 / 156 40% 1 09.12.2026 -
Luís Henrique Inter Ativo 146 / 132 40% 2 08.12.2026 -
Alexis Saelemaekers AC Milan Ativo 155 / 139 40% 1 08.12.2026 -
Cher Ndour Fiorentina Ativo 130 / 129 40% 3 05.12.2026 -
Marko Brest Olimpija Ljubljana Ativo 113 / 124 40% 1 05.12.2026 -
Aidomo Emakhu Oxford United Ativo 118 / 110 40% 1 05.12.2026 -
Carlos Augusto Inter Ativo 143 / 138 40% 1 02.12.2026 -
Raoul Bellanova Atalanta Ativo 152 / 161 40% 1 02.12.2026 -
Tommaso Pobega Bologna Ativo 145 / 141 40% 2 01.12.2026 -
Lorenzo Ignacchiti Empoli Ativo 123 / 124 40% 1 30.11.2026 -
Andrea Colpani Monza Ativo 129 / 121 40% 1 30.11.2026 -
Emanuele Valeri Parma Ativo 140 / 141 40% 2 29.11.2026 -
Simone Trimboli Mantova Ativo 118 / 130 40% 2 28.11.2026 -
Yan Diomandé Real Madrid Ativo 154 / 160 40% 2 28.11.2026 -
Nicolò Fagioli Fiorentina Ativo 133 / 139 40% 2 25.11.2026 -
Alan Lescano Argentinos Juniors Ativo 141 / 113 40% 1 25.11.2026 -
Joaquín Gho Argentinos Juniors Ativo 130 / 142 40% 1 24.11.2026 -
Armand Laurienté Sassuolo Ativo 139 / 145 40% 2 22.11.2026 -
Curtis Jones Inter Ativo 159 / 160 40% 4 21.11.2026 -
Nadir Zortea Bologna Ativo 137 / 134 40% 4 21.11.2026 -
Romano Schmid Frosinone Ativo 145 / 152 40% 2 20.11.2026 Mais informações
Aníbal Moreno River Plate Ativo 124 / 118 40% 1 20.11.2026 -
Lewis Ferguson Bologna Ativo 136 / 140 40% 1 19.11.2026 -
Jurgen Ekkelenkamp Udinese Ativo 131 / 132 40% 1 09.11.2026 -
Juan Velázquez Belgrano Ativo 118 / 122 40% 1 07.11.2026 -
Griffin Yow New England Revolution Ativo 131 / 107 40% 1 06.11.2026 -
Mikael Egill Ellertsson Genoa Ativo 129 / 149 40% 1 04.11.2026 -
Mandla Erasmus SuperSport United Ativo 118 / 114 40% 2 30.10.2026 -
Robert FC Copenhagen Ativo 132 / 144 40% 1 30.10.2026 -
Marco Brescianini Fiorentina Ativo 142 / 143 40% 1 29.10.2026 -
Adrien Truffert Bournemouth Ativo 146 / 159 40% 2 22.10.2026 -
Ignacio Rodríguez Racing Club Ativo 132 / 109 40% 1 22.10.2026 -
Nico González Newcastle United Ativo 158 / 150 40% 1 21.10.2026 -
Stanley Mills Oxford United Ativo 119 / 110 40% 1 21.10.2026 -
Tino Livramento Newcastle United Ativo 157 / 144 40% 2 20.10.2026 -
Elliot Anderson Manchester City Ativo 146 / 146 40% 3 19.10.2026 -
Callum Hudson-Odoi Nottingham Forest Ativo 155 / 137 40% 1 16.10.2026 -
Carlos Vicente Birmingham Ativo 144 / 148 40% 1 15.10.2026 Mais informações
Kimito Nono Sanfrecce Hiroshima Ativo 125 / 139 40% 1 14.10.2026 -
Kevin Fulham Ativo 150 / 161 40% 1 11.10.2026 -
Iliman N'Diaye Everton Ativo 152 / 166 40% 2 10.10.2026 -
Wilson Isidor Sunderland Ativo 132 / 131 40% 1 10.10.2026 -
Michael Kayode Brentford Ativo 146 / 147 40% 1 08.10.2026 -
Georginio Rutter Brighton Ativo 152 / 146 40% 2 05.10.2026 -
Yeremy Pino Crystal Palace Ativo 152 / 136 40% 1 05.10.2026 -
Nicolò Cambiaghi Bologna Ativo 132 / 145 40% 1 05.10.2026 -
Dejan Kulusevski Tottenham Ativo 164 / 175 40% 1 03.10.2026 -
Marcus Tavernier Bournemouth Ativo 144 / 131 40% 1 25.09.2026 -
Lucas Da Cunha Como Ativo 149 / 148 40% 1 25.09.2026 -
Ryan Sessegnon Fulham Ativo 142 / 139 40% 1 25.09.2026 -
Matt O'Riley Brighton Ativo 144 / 143 40% 1 24.09.2026 -
Gonzalo Fulham Ativo 144 / 154 40% 1 21.09.2026 -
Alex Scott Bournemouth Ativo 148 / 157 40% 1 11.09.2026 -
Vitinha Paris Saint-Germain Ativo 172 / 171 40% 1 07.09.2026 -
Cody Gakpo Liverpool Ativo 151 / 151 40% 1 07.09.2026 -
Octavio Ontivero Lanús Ativo 97 / 95 40% 1 01.08.2026 -